Time;durP1;ratioP1;P1;durP2;ratioP2;P2;SDS_P1;SDS_P2;PMS_P1;PMS_P2;Temp;Humidity;BMP_temperature;BMP_pressure;BME280_temperature;BME280_humidity;BME280_pressure;Samples;Min_cycle;Max_cycle;Signal;HPM_P1;HPM_P2
2021/03/07 00:01:45;;;;;;;9.82;5.22;;;1.80;74.00;;;;;;5093472;28;20254;-69
2021/03/07 00:04:12;;;;;;;8.50;4.72;;;1.80;73.20;;;;;;5093419;28;20225;-69
2021/03/07 00:06:39;;;;;;;10.13;5.47;;;1.80;73.60;;;;;;5093546;28;20202;-70
2021/03/07 00:09:05;;;;;;;10.48;5.25;;;1.90;72.80;;;;;;5093661;28;20292;-69
2021/03/07 00:11:32;;;;;;;8.43;6.20;;;1.90;73.00;;;;;;5093671;28;20232;-69
2021/03/07 00:13:58;;;;;;;10.60;5.20;;;2.00;72.90;;;;;;5093431;28;20194;-69
2021/03/07 00:16:25;;;;;;;8.38;4.72;;;2.10;73.10;;;;;;5093297;28;20217;-69
2021/03/07 00:18:51;;;;;;;12.70;5.25;;;2.00;73.30;;;;;;5093620;28;20293;-70
2021/03/07 00:21:17;;;;;;;7.50;4.68;;;2.00;74.20;;;;;;5093577;28;20218;-70
2021/03/07 00:23:44;;;;;;;10.40;6.60;;;2.00;74.40;;;;;;5093513;28;20255;-69
2021/03/07 00:26:11;;;;;;;12.07;7.00;;;2.00;73.40;;;;;;5093379;28;20292;-70
2021/03/07 00:28:37;;;;;;;14.23;7.07;;;1.90;73.60;;;;;;5093513;28;20198;-70
2021/03/07 00:31:03;;;;;;;6.60;4.88;;;1.90;74.10;;;;;;5093395;28;20648;-70
2021/03/07 00:33:30;;;;;;;8.30;4.72;;;1.90;73.80;;;;;;5093504;28;20304;-70
2021/03/07 00:35:56;;;;;;;5.88;4.22;;;1.90;73.60;;;;;;5093249;28;20247;-70
2021/03/07 00:38:22;;;;;;;5.90;4.47;;;1.90;74.70;;;;;;5093437;28;20364;-69
2021/03/07 00:40:50;;;;;;;9.23;4.20;;;1.90;74.10;;;;;;5093370;28;20321;-70
2021/03/07 00:43:16;;;;;;;7.78;4.93;;;2.00;73.80;;;;;;5093039;28;20309;-69
2021/03/07 00:45:42;;;;;;;9.40;5.53;;;2.00;74.10;;;;;;5093041;28;20210;-69
2021/03/07 00:48:09;;;;;;;8.60;5.55;;;2.10;74.90;;;;;;5093201;28;20289;-70
2021/03/07 00:50:36;;;;;;;8.55;5.55;;;2.10;75.30;;;;;;5093654;28;20225;-69
2021/03/07 00:53:02;;;;;;;15.52;7.68;;;2.10;75.70;;;;;;5097225;28;20267;-69
2021/03/07 00:55:28;;;;;;;12.65;7.65;;;2.00;76.50;;;;;;5097155;28;20206;-69
2021/03/07 00:57:56;;;;;;;8.45;6.03;;;1.90;77.30;;;;;;5096895;28;20569;-69
2021/03/07 01:00:25;;;;;;;11.65;6.50;;;1.90;77.20;;;;;;5096692;28;20246;-70
2021/03/07 01:02:51;;;;;;;9.15;6.25;;;1.90;77.30;;;;;;5096895;28;20222;-69
2021/03/07 01:05:18;;;;;;;10.38;6.00;;;1.90;77.90;;;;;;5097028;28;20288;-69
2021/03/07 01:07:44;;;;;;;8.80;6.72;;;1.80;78.00;;;;;;5096706;28;20206;-69
2021/03/07 01:10:13;;;;;;;16.50;7.05;;;1.80;78.70;;;;;;5096775;28;20292;-69
2021/03/07 01:12:40;;;;;;;10.88;6.75;;;1.80;79.40;;;;;;5096813;28;20208;-70
2021/03/07 01:15:09;;;;;;;9.10;6.40;;;1.80;79.10;;;;;;5096439;28;20202;-69
2021/03/07 01:17:35;;;;;;;10.23;6.05;;;1.80;79.80;;;;;;5096519;28;20563;-69
2021/03/07 01:20:05;;;;;;;12.20;5.45;;;1.70;79.20;;;;;;5096689;28;20213;-69
2021/03/07 01:22:31;;;;;;;8.23;5.00;;;1.70;79.60;;;;;;5096648;28;20664;-69
2021/03/07 01:24:57;;;;;;;8.95;4.65;;;1.70;80.20;;;;;;5096502;28;20237;-69
2021/03/07 01:27:24;;;;;;;6.13;4.88;;;1.60;78.90;;;;;;5096147;28;20273;-69
2021/03/07 01:29:50;;;;;;;7.50;5.40;;;1.50;78.80;;;;;;5096262;28;20719;-69
2021/03/07 01:32:17;;;;;;;10.15;5.65;;;1.40;79.40;;;;;;5096416;28;20222;-69
2021/03/07 01:34:43;;;;;;;10.10;4.70;;;1.40;79.50;;;;;;5096190;28;20690;-69
2021/03/07 01:37:10;;;;;;;6.03;4.10;;;1.40;79.50;;;;;;5096023;28;20262;-69
2021/03/07 01:39:36;;;;;;;9.20;5.30;;;1.40;80.90;;;;;;5096292;28;20308;-69
2021/03/07 01:42:09;;;;;;;11.32;5.15;;;1.20;79.70;;;;;;5096103;28;20218;-69
2021/03/07 01:44:35;;;;;;;5.35;4.50;;;1.30;80.10;;;;;;5095997;28;20249;-70
2021/03/07 01:47:02;;;;;;;10.27;4.70;;;1.30;79.80;;;;;;5096007;28;20202;-69
2021/03/07 01:49:29;;;;;;;7.75;4.55;;;1.20;80.80;;;;;;5095935;28;20343;-69
2021/03/07 01:51:56;;;;;;;8.95;5.25;;;1.20;81.80;;;;;;5095717;28;20222;-69
2021/03/07 01:54:22;;;;;;;9.68;5.57;;;1.20;82.50;;;;;;5095726;28;20194;-69
2021/03/07 01:56:51;;;;;;;8.68;5.15;;;1.20;82.00;;;;;;5095821;28;20232;-69
2021/03/07 01:59:20;;;;;;;10.18;5.78;;;1.20;82.00;;;;;;5095877;28;20198;-69
2021/03/07 02:01:48;;;;;;;10.65;5.50;;;1.20;82.30;;;;;;5095825;28;20218;-69
2021/03/07 02:04:15;;;;;;;8.85;5.55;;;1.20;82.70;;;;;;5095017;28;20226;-69
2021/03/07 02:06:42;;;;;;;9.57;6.15;;;1.20;83.10;;;;;;5095541;28;20228;-69
2021/03/07 02:09:09;;;;;;;7.43;5.80;;;1.10;83.90;;;;;;5095406;28;20572;-69
2021/03/07 02:11:38;;;;;;;12.23;6.10;;;1.10;84.30;;;;;;5095347;28;20309;-69
2021/03/07 02:14:06;;;;;;;9.40;4.72;;;1.00;84.40;;;;;;5095472;28;20202;-69
2021/03/07 02:16:34;;;;;;;8.40;5.43;;;1.10;83.80;;;;;;5095250;28;20660;-69
2021/03/07 02:19:00;;;;;;;6.03;4.32;;;1.10;83.30;;;;;;5095465;28;20686;-69
2021/03/07 02:21:33;;;;;;;8.05;4.78;;;1.10;83.80;;;;;;5095375;28;20719;-69
2021/03/07 02:24:04;;;;;;;11.48;5.18;;;1.10;84.50;;;;;;5095404;28;20222;-69
2021/03/07 02:26:32;;;;;;;7.28;5.40;;;1.10;85.10;;;;;;5095197;28;20297;-69
2021/03/07 02:28:58;;;;;;;12.30;6.15;;;1.10;84.70;;;;;;5095346;28;20297;-69
2021/03/07 02:31:27;;;;;;;7.57;4.65;;;1.00;84.80;;;;;;5095218;28;20273;-69
2021/03/07 02:34:00;;;;;;;8.25;4.30;;;1.00;84.60;;;;;;5095288;28;20315;-69
2021/03/07 02:36:32;;;;;;;7.20;4.25;;;1.10;85.20;;;;;;5095072;28;20289;-69
2021/03/07 02:39:00;;;;;;;7.05;4.53;;;1.20;85.50;;;;;;5095163;28;20248;-69
2021/03/07 02:41:30;;;;;;;15.43;7.28;;;1.20;84.70;;;;;;5095051;28;20218;-69
2021/03/07 02:43:58;;;;;;;13.02;6.97;;;0.90;84.70;;;;;;5094853;28;20691;-69
2021/03/07 02:46:25;;;;;;;17.80;7.90;;;0.70;86.10;;;;;;5094420;28;20216;-69
2021/03/07 02:48:55;;;;;;;18.50;8.55;;;0.70;87.80;;;;;;5094933;28;20205;-69
2021/03/07 02:51:23;;;;;;;13.18;7.60;;;0.60;88.70;;;;;;5095720;28;20218;-69
2021/03/07 02:53:51;;;;;;;13.32;7.78;;;0.60;90.20;;;;;;5094681;28;20289;-69
2021/03/07 02:56:19;;;;;;;9.57;6.90;;;0.70;90.40;;;;;;5094622;28;20231;-69
2021/03/07 02:58:47;;;;;;;10.35;6.18;;;0.70;91.10;;;;;;5094658;28;20289;-69
2021/03/07 03:01:17;;;;;;;12.20;7.30;;;0.70;90.90;;;;;;5094343;28;20746;-69
2021/03/07 03:03:49;;;;;;;11.82;6.63;;;0.70;90.80;;;;;;5094341;28;20770;-69
2021/03/07 03:06:16;;;;;;;11.30;7.40;;;0.80;91.00;;;;;;5094487;28;20206;-69
2021/03/07 03:08:46;;;;;;;11.52;6.43;;;0.80;91.00;;;;;;5094829;28;20205;-69
2021/03/07 03:11:13;;;;;;;12.68;5.70;;;0.70;91.10;;;;;;5094480;28;20226;-69
2021/03/07 03:13:41;;;;;;;9.20;5.47;;;0.70;91.40;;;;;;5094174;28;20285;-69
2021/03/07 03:16:09;;;;;;;10.30;5.00;;;0.70;91.40;;;;;;5093647;28;20205;-70
2021/03/07 03:18:37;;;;;;;10.82;5.15;;;0.70;91.50;;;;;;5094390;28;20214;-70
2021/03/07 03:21:07;;;;;;;7.07;4.72;;;0.80;91.60;;;;;;5094184;28;20637;-69
2021/03/07 03:23:34;;;;;;;8.90;4.72;;;0.80;91.70;;;;;;5094325;28;20230;-69
2021/03/07 03:26:00;;;;;;;6.93;4.60;;;0.80;92.00;;;;;;5094046;28;20724;-70
2021/03/07 03:28:27;;;;;;;8.73;5.07;;;0.70;92.10;;;;;;5094705;28;20232;-69
2021/03/07 03:30:54;;;;;;;12.18;5.43;;;0.60;92.10;;;;;;5093880;28;20741;-69
2021/03/07 03:33:21;;;;;;;9.10;5.20;;;0.50;92.90;;;;;;5094000;28;20211;-69
2021/03/07 03:35:48;;;;;;;6.88;4.80;;;0.50;93.60;;;;;;5094121;28;20600;-69
2021/03/07 03:38:15;;;;;;;6.30;5.10;;;0.50;93.60;;;;;;5093913;28;20210;-69
2021/03/07 03:40:42;;;;;;;6.68;4.40;;;0.60;93.50;;;;;;5093920;28;20308;-70
2021/03/07 03:43:10;;;;;;;7.80;5.10;;;0.70;93.40;;;;;;5093960;28;20223;-69
2021/03/07 03:45:39;;;;;;;8.90;5.32;;;0.70;93.40;;;;;;5093802;28;20262;-70
2021/03/07 03:48:08;;;;;;;9.07;5.00;;;0.70;93.40;;;;;;5093782;28;20198;-69
2021/03/07 03:50:38;;;;;;;11.80;6.20;;;0.80;93.40;;;;;;5093617;28;20225;-70
2021/03/07 03:53:06;;;;;;;9.10;5.55;;;0.80;93.40;;;;;;5093928;28;20281;-69
2021/03/07 03:55:34;;;;;;;7.93;4.28;;;0.80;93.30;;;;;;5093839;28;20296;-70
2021/03/07 03:58:03;;;;;;;8.38;5.45;;;0.90;93.20;;;;;;5093661;28;20202;-70
2021/03/07 04:00:32;;;;;;;9.23;5.43;;;0.80;93.10;;;;;;5093586;28;20282;-70
2021/03/07 04:03:00;;;;;;;6.00;4.47;;;0.80;93.30;;;;;;5093742;28;20206;-69
2021/03/07 04:05:28;;;;;;;12.50;5.32;;;0.70;93.40;;;;;;5093774;28;20218;-69
2021/03/07 04:07:56;;;;;;;7.55;5.32;;;0.80;93.70;;;;;;5093281;28;20208;-69
2021/03/07 04:10:24;;;;;;;10.00;5.90;;;0.60;93.50;;;;;;5093635;28;20322;-70
2021/03/07 04:12:53;;;;;;;4.95;4.05;;;0.50;93.90;;;;;;5093435;28;20208;-69
2021/03/07 04:15:20;;;;;;;7.95;4.68;;;0.40;94.70;;;;;;5093485;28;20202;-69
2021/03/07 04:17:50;;;;;;;12.52;5.22;;;0.40;95.00;;;;;;5093363;28;20660;-69
2021/03/07 04:20:17;;;;;;;7.50;5.10;;;0.40;95.00;;;;;;5093463;28;20206;-69
2021/03/07 04:22:43;;;;;;;8.93;5.68;;;0.40;95.10;;;;;;5093503;28;20202;-70
2021/03/07 04:25:11;;;;;;;6.78;3.97;;;0.40;95.20;;;;;;5093485;28;20227;-70
2021/03/07 04:27:38;;;;;;;7.72;4.55;;;0.50;95.20;;;;;;5097322;28;20210;-69
2021/03/07 04:30:07;;;;;;;6.80;4.00;;;0.50;94.90;;;;;;5097660;28;20241;-69
2021/03/07 04:32:34;;;;;;;8.57;4.10;;;0.50;94.80;;;;;;5097653;28;20247;-69
2021/03/07 04:35:01;;;;;;;6.40;3.20;;;0.50;94.80;;;;;;5097299;28;20214;-69
2021/03/07 04:37:28;;;;;;;5.47;3.72;;;0.50;94.70;;;;;;5097344;28;20296;-70
2021/03/07 04:39:54;;;;;;;5.43;4.05;;;0.40;94.80;;;;;;5097573;28;20208;-70
2021/03/07 04:42:22;;;;;;;6.55;3.78;;;0.20;94.80;;;;;;5097378;28;20249;-70
2021/03/07 04:44:48;;;;;;;8.45;4.60;;;0.20;95.50;;;;;;5097143;28;20226;-70
2021/03/07 04:47:15;;;;;;;8.68;4.43;;;0.10;95.80;;;;;;5097009;28;20209;-70
2021/03/07 04:49:41;;;;;;;6.47;4.50;;;0.10;96.30;;;;;;5096965;28;20202;-70
2021/03/07 04:52:08;;;;;;;9.48;4.70;;;0.10;97.00;;;;;;5097214;28;20615;-70
2021/03/07 04:54:34;;;;;;;8.30;4.25;;;0.20;96.70;;;;;;5097149;28;20207;-70
2021/03/07 04:57:02;;;;;;;11.48;4.60;;;0.30;96.60;;;;;;5096876;28;20660;-69
2021/03/07 04:59:29;;;;;;;5.60;3.72;;;0.30;96.60;;;;;;5097073;28;20260;-70
2021/03/07 05:01:55;;;;;;;9.35;4.28;;;0.30;96.40;;;;;;5096877;28;20313;-70
2021/03/07 05:04:22;;;;;;;8.27;5.20;;;0.30;96.60;;;;;;5096915;28;20226;-70
2021/03/07 05:06:48;;;;;;;7.85;4.15;;;0.30;95.90;;;;;;5096552;28;20297;-69
2021/03/07 05:09:14;;;;;;;5.45;3.80;;;0.30;95.60;;;;;;5096797;28;20216;-70
2021/03/07 05:11:41;;;;;;;6.35;4.20;;;0.30;95.90;;;;;;5096784;28;20312;-70
2021/03/07 05:14:07;;;;;;;6.35;4.13;;;0.40;95.50;;;;;;5096836;28;20202;-70
2021/03/07 05:16:35;;;;;;;7.72;4.38;;;0.40;95.50;;;;;;5096437;28;20732;-70
2021/03/07 05:19:01;;;;;;;6.68;4.07;;;0.50;95.40;;;;;;5096493;28;20292;-70
2021/03/07 05:21:28;;;;;;;7.75;4.05;;;0.30;95.20;;;;;;5096633;28;20309;-70
2021/03/07 05:23:54;;;;;;;6.28;3.65;;;0.00;95.80;;;;;;5096564;28;20314;-70
2021/03/07 05:26:21;;;;;;;6.28;3.60;;;-0.10;96.00;;;;;;5096382;28;20297;-70
2021/03/07 05:28:47;;;;;;;8.07;3.55;;;-0.20;96.40;;;;;;5096465;28;20731;-70
2021/03/07 05:31:14;;;;;;;5.72;3.67;;;-0.10;96.90;;;;;;5096144;28;20222;-70
2021/03/07 05:33:41;;;;;;;6.97;4.45;;;-0.20;97.60;;;;;;5096431;28;20198;-69
2021/03/07 05:36:07;;;;;;;6.90;3.25;;;-0.30;97.90;;;;;;5096004;28;20202;-70
2021/03/07 05:38:34;;;;;;;6.78;3.63;;;-0.40;98.60;;;;;;5095273;28;20301;-70
2021/03/07 05:41:00;;;;;;;8.05;4.63;;;-0.50;98.80;;;;;;5096116;28;20313;-70
2021/03/07 05:43:27;;;;;;;5.70;4.53;;;-0.60;99.60;;;;;;5096280;28;20222;-69
2021/03/07 05:45:53;;;;;;;9.02;3.95;;;-0.50;99.90;;;;;;5095771;28;20249;-69
2021/03/07 05:48:20;;;;;;;6.35;3.85;;;-0.50;99.90;;;;;;5096009;28;20289;-70
2021/03/07 05:50:47;;;;;;;4.57;2.90;;;-0.40;99.90;;;;;;5096005;28;20313;-70
2021/03/07 05:53:13;;;;;;;4.60;3.13;;;-0.30;99.90;;;;;;5096131;28;20201;-69
2021/03/07 05:55:41;;;;;;;7.20;4.28;;;-0.10;99.90;;;;;;5096025;28;20289;-69
2021/03/07 05:58:08;;;;;;;10.35;5.22;;;0.00;99.20;;;;;;5095737;28;20209;-69
2021/03/07 06:00:35;;;;;;;6.55;3.85;;;0.00;99.00;;;;;;5095824;28;20272;-70
2021/03/07 06:03:01;;;;;;;8.50;4.63;;;0.10;99.10;;;;;;5095609;28;20208;-69
2021/03/07 06:05:27;;;;;;;6.25;4.43;;;0.10;99.30;;;;;;5095832;28;20344;-69
2021/03/07 06:07:54;;;;;;;9.15;5.63;;;0.20;99.30;;;;;;5095607;28;20331;-69
2021/03/07 06:10:23;;;;;;;6.95;5.10;;;0.20;99.10;;;;;;5095656;28;20297;-69
2021/03/07 06:12:59;;;;;;;7.78;5.07;;;0.20;98.80;;;;;;5095398;28;20285;-69
2021/03/07 06:15:26;;;;;;;6.60;3.92;;;0.30;98.70;;;;;;5095787;28;20248;-69
2021/03/07 06:17:52;;;;;;;12.40;4.57;;;0.40;98.10;;;;;;5095402;28;20202;-69
2021/03/07 06:20:20;;;;;;;7.30;5.00;;;0.50;98.00;;;;;;5095494;28;20216;-70
2021/03/07 06:22:56;;;;;;;6.60;4.15;;;0.50;97.80;;;;;;5095571;28;20544;-70
2021/03/07 06:25:23;;;;;;;8.43;4.10;;;0.60;97.30;;;;;;5095409;28;20285;-70
2021/03/07 06:27:49;;;;;;;10.07;4.03;;;0.50;97.60;;;;;;5095276;28;20302;-70
2021/03/07 06:30:17;;;;;;;8.18;4.60;;;0.60;97.60;;;;;;5095283;28;20304;-70
2021/03/07 06:32:50;;;;;;;8.73;4.70;;;0.60;97.80;;;;;;5095089;28;20232;-70
2021/03/07 06:35:20;;;;;;;6.78;4.80;;;0.30;97.60;;;;;;5095270;28;20198;-70
2021/03/07 06:37:56;;;;;;;8.20;4.65;;;0.00;98.20;;;;;;5094729;28;20739;-69
2021/03/07 06:40:28;;;;;;;5.32;3.75;;;-0.10;98.50;;;;;;5094858;28;20240;-70
2021/03/07 06:42:55;;;;;;;7.10;4.07;;;-0.20;98.90;;;;;;5094797;28;20293;-70
2021/03/07 06:45:22;;;;;;;7.10;4.13;;;-0.30;99.30;;;;;;5094712;28;20301;-70
2021/03/07 06:47:56;;;;;;;4.40;3.78;;;-0.30;99.70;;;;;;5094901;28;20537;-70
2021/03/07 06:50:22;;;;;;;8.88;4.20;;;-0.10;99.90;;;;;;5094578;28;20293;-70
2021/03/07 06:52:54;;;;;;;8.32;4.55;;;0.10;99.90;;;;;;5094671;28;20209;-70
2021/03/07 06:55:24;;;;;;;6.75;4.22;;;0.00;99.70;;;;;;5094888;28;20198;-70
2021/03/07 06:57:50;;;;;;;6.00;3.70;;;0.10;99.90;;;;;;5094521;28;20293;-70
2021/03/07 07:00:17;;;;;;;11.90;5.20;;;0.20;99.90;;;;;;5094588;28;20217;-70
2021/03/07 07:03:09;;;;;;;7.22;4.38;;;0.30;99.90;;;;;;5094682;28;20209;-70
2021/03/07 07:05:40;;;;;;;9.05;5.25;;;0.50;99.90;;;;;;5094691;28;20202;-70
2021/03/07 07:08:08;;;;;;;8.75;4.72;;;0.70;99.20;;;;;;5094426;28;20604;-70
2021/03/07 07:11:02;;;;;;;5.72;4.07;;;0.80;98.50;;;;;;5094505;28;20771;-69
2021/03/07 07:13:30;;;;;;;12.20;5.82;;;0.80;98.30;;;;;;5094531;28;20187;-69
2021/03/07 07:16:02;;;;;;;10.70;5.90;;;0.70;99.30;;;;;;5094288;28;20210;-70
2021/03/07 07:18:30;;;;;;;7.68;4.97;;;0.80;98.40;;;;;;5094278;28;20204;-69
2021/03/07 07:20:57;;;;;;;7.68;4.97;;;0.70;98.00;;;;;;5094554;28;20256;-70
2021/03/07 07:23:26;;;;;;;8.35;4.60;;;0.80;98.50;;;;;;5094338;28;20615;-70
2021/03/07 07:25:52;;;;;;;9.75;5.50;;;0.80;98.30;;;;;;5094283;28;20202;-69
2021/03/07 07:28:19;;;;;;;9.80;4.72;;;0.90;98.30;;;;;;5093944;28;20206;-70
2021/03/07 07:30:52;;;;;;;9.02;4.47;;;1.00;98.40;;;;;;5094135;28;20233;-70
2021/03/07 07:33:41;;;;;;;8.13;5.38;;;1.20;98.10;;;;;;5094262;28;20193;-70
2021/03/07 07:36:13;;;;;;;9.00;5.88;;;1.10;97.60;;;;;;5093878;28;20206;-70
2021/03/07 07:38:43;;;;;;;6.97;5.65;;;1.00;98.50;;;;;;5094111;28;20205;-70
2021/03/07 07:41:30;;;;;;;11.10;5.53;;;1.20;98.30;;;;;;5094076;28;20253;-70
2021/03/07 07:43:57;;;;;;;6.95;4.72;;;1.40;97.50;;;;;;5093693;28;20304;-70
2021/03/07 07:46:24;;;;;;;12.10;6.20;;;1.50;97.10;;;;;;5093470;28;20212;-70
2021/03/07 07:48:50;;;;;;;7.78;5.47;;;1.50;97.40;;;;;;5093712;28;20679;-70
2021/03/07 07:51:37;;;;;;;9.73;5.15;;;1.60;97.20;;;;;;5093984;28;20264;-70
2021/03/07 07:54:06;;;;;;;9.23;5.68;;;1.80;96.40;;;;;;5093869;28;20284;-70
2021/03/07 07:56:40;;;;;;;10.80;5.25;;;1.90;95.60;;;;;;5093718;28;20205;-70
2021/03/07 07:59:08;;;;;;;8.95;5.57;;;1.90;95.40;;;;;;5093784;28;20197;-69
2021/03/07 08:01:57;;;;;;;6.50;5.63;;;2.00;95.60;;;;;;5093204;28;20225;-70
2021/03/07 08:04:39;;;;;;;7.93;5.05;;;2.10;95.90;;;;;;5093822;28;20643;-70
2021/03/07 08:07:07;;;;;;;6.68;5.30;;;2.20;95.40;;;;;;5093604;28;20329;-70
2021/03/07 08:09:39;;;;;;;11.23;6.43;;;2.20;95.60;;;;;;5093679;28;20232;-70
2021/03/07 08:12:43;;;;;;;9.73;5.63;;;2.20;95.50;;;;;;5093678;28;20305;-70
2021/03/07 08:15:43;;;;;;;10.32;5.70;;;2.20;95.10;;;;;;5093603;28;20205;-70
2021/03/07 08:18:10;;;;;;;6.50;4.82;;;1.90;95.40;;;;;;5093323;28;20237;-70
2021/03/07 08:20:59;;;;;;;6.88;5.25;;;1.70;95.70;;;;;;5093285;28;20309;-70
2021/03/07 08:23:25;;;;;;;6.63;4.82;;;1.90;95.90;;;;;;5093598;28;20241;-70
2021/03/07 08:26:02;;;;;;;7.88;5.00;;;2.00;95.80;;;;;;5093552;28;20202;-70
2021/03/07 08:28:43;;;;;;;6.53;4.75;;;2.10;95.90;;;;;;5093591;28;20201;-70
2021/03/07 08:31:35;;;;;;;10.90;5.70;;;2.10;95.20;;;;;;5093340;28;20272;-70
2021/03/07 08:34:24;;;;;;;10.60;6.53;;;2.30;94.90;;;;;;5092838;28;20534;-70
2021/03/07 08:36:59;;;;;;;9.40;6.45;;;2.40;95.40;;;;;;5093340;28;20439;-70
2021/03/07 08:39:26;;;;;;;8.02;5.13;;;2.40;95.30;;;;;;5093622;28;20590;-70
2021/03/07 08:42:03;;;;;;;9.07;5.65;;;2.40;95.10;;;;;;5093483;28;20449;-70
2021/03/07 08:44:31;;;;;;;10.25;5.72;;;2.40;95.30;;;;;;5093300;28;20309;-70
2021/03/07 08:46:58;;;;;;;12.35;5.65;;;2.30;95.00;;;;;;5093094;28;20232;-70
2021/03/07 08:49:27;;;;;;;7.93;5.47;;;2.30;95.50;;;;;;5093330;28;20293;-70
2021/03/07 08:52:05;;;;;;;11.00;6.03;;;2.40;95.70;;;;;;5093014;28;20225;-70
2021/03/07 08:54:34;;;;;;;11.70;5.75;;;2.40;94.90;;;;;;5093345;28;20198;-70
2021/03/07 08:57:10;;;;;;;9.80;6.97;;;2.50;94.70;;;;;;5092981;28;20213;-70
2021/03/07 08:59:37;;;;;;;8.00;5.40;;;2.60;95.30;;;;;;5093294;28;20625;-69
2021/03/07 09:02:04;;;;;;;10.70;6.25;;;2.80;95.20;;;;;;5092937;28;20229;-70
2021/03/07 09:04:36;;;;;;;8.18;5.55;;;2.80;94.20;;;;;;5093164;28;20317;-70
2021/03/07 09:07:03;;;;;;;13.35;5.97;;;2.90;94.90;;;;;;5092879;28;20683;-70
2021/03/07 09:09:29;;;;;;;11.25;6.60;;;2.90;93.90;;;;;;5093207;28;20241;-70
2021/03/07 09:11:58;;;;;;;8.95;6.20;;;3.20;94.10;;;;;;5093870;28;20305;-69
2021/03/07 09:14:30;;;;;;;10.55;6.20;;;3.30;93.80;;;;;;5096832;28;20202;-70
2021/03/07 09:16:57;;;;;;;8.13;5.50;;;3.40;93.60;;;;;;5096614;28;20202;-70
2021/03/07 09:19:30;;;;;;;9.93;5.78;;;3.50;93.40;;;;;;5096736;28;20632;-70
2021/03/07 09:22:19;;;;;;;9.18;6.28;;;3.50;94.20;;;;;;5096535;28;20735;-70
2021/03/07 09:24:58;;;;;;;9.55;5.82;;;3.80;92.20;;;;;;5096583;28;20316;-69
2021/03/07 09:27:25;;;;;;;10.23;6.07;;;4.10;92.80;;;;;;5096390;28;20363;-70
2021/03/07 09:29:54;;;;;;;10.98;6.57;;;4.20;92.70;;;;;;5096537;28;20238;-70
2021/03/07 09:32:25;;;;;;;10.13;6.50;;;4.50;92.00;;;;;;5096626;28;20313;-70
2021/03/07 09:34:51;;;;;;;15.73;6.53;;;4.70;91.80;;;;;;5096425;28;20198;-70
2021/03/07 09:37:20;;;;;;;12.55;6.20;;;4.90;92.00;;;;;;5095999;28;20198;-69
2021/03/07 09:39:47;;;;;;;12.43;7.03;;;5.10;91.50;;;;;;5096285;28;20198;-70
2021/03/07 09:42:13;;;;;;;9.85;6.50;;;5.40;90.20;;;;;;5096362;28;20327;-70
2021/03/07 09:44:44;;;;;;;12.40;7.00;;;5.80;90.00;;;;;;5096061;28;20224;-70
2021/03/07 09:47:12;;;;;;;9.05;6.53;;;6.20;88.10;;;;;;5096023;28;20202;-70
2021/03/07 09:49:40;;;;;;;11.15;6.85;;;6.50;84.80;;;;;;5096681;28;20340;-70
2021/03/07 09:52:07;;;;;;;9.45;6.30;;;6.60;82.00;;;;;;5095779;28;20763;-70
2021/03/07 09:54:33;;;;;;;11.23;6.70;;;6.80;82.40;;;;;;5095919;28;20294;-70
2021/03/07 09:57:00;;;;;;;11.02;6.78;;;7.00;82.10;;;;;;5095758;28;20572;-70
2021/03/07 09:59:30;;;;;;;10.80;6.45;;;7.30;79.80;;;;;;5095999;28;20292;-70
2021/03/07 10:01:59;;;;;;;10.70;6.68;;;7.60;79.40;;;;;;5095822;28;20222;-70
2021/03/07 10:04:32;;;;;;;9.68;6.40;;;7.80;78.20;;;;;;5095553;28;20218;-70
2021/03/07 10:07:00;;;;;;;11.75;7.50;;;7.70;74.10;;;;;;5095705;28;20292;-70
2021/03/07 10:09:26;;;;;;;10.35;6.47;;;7.80;74.50;;;;;;5096130;28;20251;-70
2021/03/07 10:12:01;;;;;;;9.80;7.03;;;7.90;74.80;;;;;;5095467;28;20228;-70
2021/03/07 10:14:30;;;;;;;9.68;6.57;;;8.10;73.60;;;;;;5095626;28;20201;-70
2021/03/07 10:16:58;;;;;;;12.90;8.30;;;8.30;73.90;;;;;;5095460;28;20208;-69
2021/03/07 10:19:35;;;;;;;11.80;8.32;;;8.20;70.00;;;;;;5095933;28;20229;-70
2021/03/07 10:22:03;;;;;;;14.68;7.03;;;8.40;70.60;;;;;;5095267;28;20222;-70
2021/03/07 10:24:32;;;;;;;11.13;7.20;;;8.80;70.20;;;;;;5095282;28;20606;-70
2021/03/07 10:27:02;;;;;;;9.55;6.82;;;9.40;68.40;;;;;;5095054;28;20234;-70
2021/03/07 10:29:30;;;;;;;13.57;7.88;;;9.90;66.40;;;;;;5095414;28;20202;-70
2021/03/07 10:32:09;;;;;;;11.80;7.75;;;10.60;65.00;;;;;;5095292;28;20313;-70
2021/03/07 10:34:38;;;;;;;10.45;7.28;;;11.50;60.10;;;;;;5095323;28;20202;-70
2021/03/07 10:37:07;;;;;;;11.73;7.93;;;11.10;58.50;;;;;;5094906;28;20202;-70
2021/03/07 10:39:34;;;;;;;12.57;7.68;;;10.70;58.20;;;;;;5095142;28;20610;-70
2021/03/07 10:42:08;;;;;;;12.57;8.15;;;10.90;59.20;;;;;;5095112;28;20222;-70
2021/03/07 10:44:35;;;;;;;12.38;8.18;;;11.20;57.30;;;;;;5094832;28;20275;-70
2021/03/07 10:47:18;;;;;;;12.48;8.25;;;11.10;57.40;;;;;;5094817;28;20209;-70
2021/03/07 10:49:49;;;;;;;10.80;7.88;;;11.10;58.30;;;;;;5094968;28;20198;-70
2021/03/07 10:52:16;;;;;;;10.65;7.70;;;10.70;58.10;;;;;;5095284;28;20236;-70
2021/03/07 10:54:43;;;;;;;11.85;6.88;;;10.80;57.90;;;;;;5094871;28;20598;-70
2021/03/07 10:57:11;;;;;;;12.75;8.50;;;11.10;57.80;;;;;;5094664;28;20208;-70
2021/03/07 10:59:38;;;;;;;11.27;7.20;;;11.30;57.70;;;;;;5094767;28;20198;-70
2021/03/07 11:02:06;;;;;;;12.13;8.48;;;10.80;56.70;;;;;;5094647;28;20312;-70
2021/03/07 11:04:32;;;;;;;12.38;7.40;;;10.10;57.70;;;;;;5094354;28;20230;-70
2021/03/07 11:07:00;;;;;;;12.15;8.15;;;9.90;59.60;;;;;;5094499;28;20223;-70
2021/03/07 11:09:26;;;;;;;13.15;8.88;;;10.00;60.30;;;;;;5094646;28;20198;-70
2021/03/07 11:11:52;;;;;;;14.02;8.65;;;9.90;60.00;;;;;;5094556;28;20221;-70
2021/03/07 11:14:19;;;;;;;11.35;8.30;;;9.60;60.40;;;;;;5094412;28;20205;-70
2021/03/07 11:16:45;;;;;;;10.98;8.00;;;9.70;61.60;;;;;;5094106;28;20210;-70
2021/03/07 11:19:11;;;;;;;15.23;8.95;;;10.10;59.70;;;;;;5094414;28;20240;-70
2021/03/07 11:21:38;;;;;;;12.00;8.30;;;10.80;59.80;;;;;;5094366;28;20632;-70
2021/03/07 11:24:06;;;;;;;11.77;7.93;;;11.00;56.80;;;;;;5094079;28;20268;-70
2021/03/07 11:26:32;;;;;;;12.15;7.95;;;12.00;57.00;;;;;;5094079;28;20202;-70
2021/03/07 11:28:59;;;;;;;11.18;8.23;;;13.20;54.50;;;;;;5094542;28;20229;-71
2021/03/07 11:31:25;;;;;;;12.13;8.05;;;13.70;53.10;;;;;;5094283;28;20230;-71
2021/03/07 11:33:51;;;;;;;10.40;8.05;;;14.40;51.30;;;;;;5094280;28;20200;-70
2021/03/07 11:36:18;;;;;;;10.48;7.60;;;14.80;50.00;;;;;;5093203;28;20292;-70
2021/03/07 11:38:44;;;;;;;11.93;8.32;;;15.30;49.20;;;;;;5093960;28;20296;-71
2021/03/07 11:41:11;;;;;;;10.27;7.75;;;15.50;47.30;;;;;;5094054;28;20296;-70
2021/03/07 11:43:37;;;;;;;11.68;7.90;;;14.10;47.20;;;;;;5094033;28;20616;-70
2021/03/07 11:46:04;;;;;;;15.85;8.82;;;13.00;49.60;;;;;;5093539;28;20225;-70
2021/03/07 11:48:30;;;;;;;13.30;8.07;;;12.20;51.40;;;;;;5093738;28;20228;-70
2021/03/07 11:50:56;;;;;;;12.93;8.27;;;12.00;52.70;;;;;;5093852;28;20278;-70
2021/03/07 11:53:23;;;;;;;12.02;8.20;;;11.30;54.00;;;;;;5093742;28;20729;-70
2021/03/07 11:55:49;;;;;;;12.98;8.75;;;11.10;54.90;;;;;;5093909;28;20293;-70
2021/03/07 11:58:16;;;;;;;11.23;7.75;;;10.80;54.80;;;;;;5093694;28;20201;-70
2021/03/07 12:00:42;;;;;;;13.02;8.10;;;10.60;56.10;;;;;;5093616;28;20253;-70
2021/03/07 12:03:09;;;;;;;10.20;7.15;;;10.40;56.50;;;;;;5093540;28;20296;-70
2021/03/07 12:05:35;;;;;;;10.75;7.85;;;10.60;57.40;;;;;;5093669;28;20232;-70
2021/03/07 12:08:02;;;;;;;12.85;8.90;;;11.00;56.90;;;;;;5093593;28;20298;-70
2021/03/07 12:10:28;;;;;;;9.95;7.93;;;11.40;56.30;;;;;;5093620;28;20198;-70
2021/03/07 12:12:54;;;;;;;13.20;8.63;;;11.30;54.40;;;;;;5093496;28;20734;-70
2021/03/07 12:15:22;;;;;;;13.23;8.60;;;11.40;55.40;;;;;;5093612;28;20198;-70
2021/03/07 12:17:48;;;;;;;10.25;7.20;;;12.20;55.30;;;;;;5093239;28;20728;-70
2021/03/07 12:20:15;;;;;;;11.23;7.35;;;13.70;53.50;;;;;;5093395;28;20237;-71
2021/03/07 12:22:42;;;;;;;11.60;7.57;;;15.00;50.70;;;;;;5093347;28;20736;-70
2021/03/07 12:25:09;;;;;;;12.43;8.30;;;13.30;49.10;;;;;;5093509;28;20228;-70
2021/03/07 12:27:35;;;;;;;12.65;8.18;;;13.10;49.50;;;;;;5093171;28;20288;-70
2021/03/07 12:30:03;;;;;;;12.32;8.00;;;13.10;51.30;;;;;;5093496;28;20220;-70
2021/03/07 12:32:30;;;;;;;11.27;7.60;;;13.30;50.20;;;;;;5093486;28;20306;-71
2021/03/07 12:34:56;;;;;;;12.38;7.45;;;13.90;49.80;;;;;;5093417;28;20204;-70
2021/03/07 12:37:22;;;;;;;10.52;7.70;;;14.20;48.50;;;;;;5093018;28;20203;-70
2021/03/07 12:39:49;;;;;;;9.50;7.57;;;13.10;47.60;;;;;;5093493;28;20202;-70
2021/03/07 12:42:15;;;;;;;10.88;7.97;;;12.40;49.30;;;;;;5093248;28;20360;-70
2021/03/07 12:44:42;;;;;;;12.30;8.13;;;11.30;51.30;;;;;;5092960;28;20218;-71
2021/03/07 12:47:08;;;;;;;11.15;7.60;;;10.80;52.30;;;;;;5094551;28;20292;-70
2021/03/07 12:49:35;;;;;;;10.77;7.43;;;10.10;53.50;;;;;;5097332;28;20243;-70
2021/03/07 12:52:01;;;;;;;12.32;7.82;;;9.70;56.10;;;;;;5097249;28;20222;-70
2021/03/07 12:54:28;;;;;;;11.80;7.72;;;9.60;56.90;;;;;;5097222;28;20243;-70
2021/03/07 12:56:54;;;;;;;14.93;8.35;;;9.80;57.60;;;;;;5096839;28;20638;-70
2021/03/07 12:59:20;;;;;;;12.32;7.85;;;9.50;56.90;;;;;;5097109;28;20209;-70